createdAt,value
2019-03-17T00:01:25.784Z,9.27
2019-03-17T00:03:58.047Z,9.63
2019-03-17T00:06:29.991Z,10.53
2019-03-17T00:09:01.853Z,8.63
2019-03-17T00:11:33.882Z,8.90
2019-03-17T00:14:06.360Z,8.53
2019-03-17T00:16:39.695Z,9.57
2019-03-17T00:19:12.087Z,9.87
2019-03-17T00:21:44.444Z,10.30
2019-03-17T00:24:16.307Z,8.93
2019-03-17T00:26:48.632Z,9.20
2019-03-17T00:29:20.556Z,8.70
2019-03-17T00:31:52.946Z,9.30
2019-03-17T00:34:25.750Z,7.93
2019-03-17T00:36:58.053Z,9.60
2019-03-17T00:39:29.962Z,8.53
2019-03-17T00:42:01.864Z,8.47
2019-03-17T00:44:33.750Z,9.00
2019-03-17T00:47:05.629Z,6.93
2019-03-17T00:49:37.506Z,7.40
2019-03-17T00:52:10.476Z,7.27
2019-03-17T00:54:42.454Z,7.67
2019-03-17T00:57:14.699Z,8.30
2019-03-17T00:59:46.596Z,8.10
2019-03-17T01:02:18.466Z,8.03
2019-03-17T01:04:56.102Z,9.77
2019-03-17T01:07:24.507Z,7.17
2019-03-17T01:09:56.716Z,7.43
2019-03-17T01:12:28.634Z,7.03
2019-03-17T01:15:00.866Z,6.33
2019-03-17T01:17:33.244Z,8.63
2019-03-17T01:20:05.360Z,7.90
2019-03-17T01:22:37.260Z,9.17
2019-03-17T01:25:09.636Z,8.07
2019-03-17T01:27:41.495Z,7.20
2019-03-17T01:30:13.791Z,7.33
2019-03-17T01:32:45.670Z,7.77
2019-03-17T01:35:18.537Z,7.47
2019-03-17T01:37:50.899Z,8.20
2019-03-17T01:40:22.798Z,7.57
2019-03-17T01:42:54.667Z,7.07
2019-03-17T01:45:26.633Z,6.63
2019-03-17T01:47:58.534Z,6.70
2019-03-17T01:50:30.462Z,8.40
2019-03-17T01:53:02.334Z,7.00
2019-03-17T01:55:34.623Z,6.50
2019-03-17T01:58:06.517Z,6.53
2019-03-17T02:00:38.511Z,5.63
2019-03-17T02:03:10.416Z,6.63
2019-03-17T02:05:42.283Z,6.33
2019-03-17T02:08:14.584Z,6.20
2019-03-17T02:10:46.469Z,5.80
2019-03-17T02:13:18.327Z,6.13
2019-03-17T02:15:50.589Z,7.73
2019-03-17T02:18:23.038Z,6.20
2019-03-17T02:20:55.265Z,5.63
2019-03-17T02:23:27.278Z,8.17
2019-03-17T02:25:59.158Z,6.87
2019-03-17T02:28:31.028Z,7.67
2019-03-17T02:31:02.941Z,6.43
2019-03-17T02:33:35.509Z,5.40
2019-03-17T02:36:07.347Z,5.40
2019-03-17T02:38:39.798Z,4.97
2019-03-17T02:41:12.281Z,6.10
2019-03-17T02:43:44.092Z,5.30
2019-03-17T02:46:16.013Z,6.20
2019-03-17T02:48:47.957Z,5.30
2019-03-17T02:51:21.378Z,5.20
2019-03-17T02:53:53.256Z,5.53
2019-03-17T02:56:26.225Z,5.03
2019-03-17T02:58:58.093Z,6.00
2019-03-17T03:01:30.040Z,5.30
2019-03-17T03:04:02.018Z,5.07
2019-03-17T03:06:33.919Z,5.03
2019-03-17T03:09:06.921Z,5.37
2019-03-17T03:11:38.755Z,4.97
2019-03-17T03:14:10.643Z,7.07
2019-03-17T03:16:42.554Z,4.97
2019-03-17T03:19:14.534Z,5.80
2019-03-17T03:21:46.386Z,5.17
2019-03-17T03:24:19.313Z,6.63
2019-03-17T03:26:51.615Z,5.47
2019-03-17T03:29:27.221Z,5.00
2019-03-17T03:31:57.826Z,5.00
2019-03-17T03:34:30.175Z,4.70
2019-03-17T03:37:01.982Z,4.07
2019-03-17T03:39:33.880Z,4.73
2019-03-17T03:42:07.073Z,4.13
2019-03-17T03:44:38.861Z,4.07
2019-03-17T03:47:10.753Z,4.47
2019-03-17T03:49:42.564Z,4.30
2019-03-17T03:52:14.492Z,3.30
2019-03-17T03:54:46.390Z,5.00
2019-03-17T03:57:18.723Z,5.50
2019-03-17T03:59:50.571Z,4.10
2019-03-17T04:02:22.444Z,4.47
2019-03-17T04:04:54.367Z,3.73
2019-03-17T04:07:26.690Z,4.73
2019-03-17T04:09:59.042Z,4.20
2019-03-17T04:12:31.364Z,3.17
2019-03-17T04:15:03.270Z,3.13
2019-03-17T04:17:35.178Z,3.50
2019-03-17T04:20:07.749Z,5.27
2019-03-17T04:22:40.120Z,4.73
2019-03-17T04:25:16.151Z,4.30
2019-03-17T04:27:47.962Z,3.23
2019-03-17T04:30:19.638Z,4.57
2019-03-17T04:32:52.708Z,4.50
2019-03-17T04:35:25.393Z,3.47
2019-03-17T04:37:58.359Z,2.60
2019-03-17T04:40:30.312Z,3.53
2019-03-17T04:43:02.265Z,3.40
2019-03-17T04:45:35.424Z,3.90
2019-03-17T04:48:09.084Z,3.47
2019-03-17T04:50:41.538Z,3.87
2019-03-17T04:53:13.404Z,2.93
2019-03-17T04:55:45.240Z,3.63
2019-03-17T04:58:19.611Z,2.87
2019-03-17T05:00:51.574Z,3.23
2019-03-17T05:03:25.445Z,3.70
2019-03-17T05:05:57.414Z,2.57
2019-03-17T05:08:29.557Z,3.07
2019-03-17T05:11:01.562Z,4.30
2019-03-17T05:13:35.150Z,2.50
2019-03-17T05:16:07.644Z,3.53
2019-03-17T05:18:41.655Z,2.70
2019-03-17T05:21:13.781Z,3.10
2019-03-17T05:23:46.393Z,2.87
2019-03-17T05:26:19.625Z,2.77
2019-03-17T05:28:53.287Z,2.57
2019-03-17T05:31:26.093Z,3.17
2019-03-17T05:33:58.319Z,4.67
2019-03-17T05:36:31.928Z,2.90
2019-03-17T05:39:06.639Z,3.23
2019-03-17T05:41:39.206Z,3.07
2019-03-17T05:44:11.748Z,2.97
2019-03-17T05:46:44.190Z,3.30
2019-03-17T05:49:16.568Z,2.80
2019-03-17T05:51:49.128Z,4.20
2019-03-17T05:54:21.793Z,2.97
2019-03-17T05:56:55.044Z,4.67
2019-03-17T05:59:28.413Z,3.57
2019-03-17T06:02:00.448Z,3.20
2019-03-17T06:04:32.721Z,3.87
2019-03-17T06:07:17.797Z,2.77
2019-03-17T06:09:40.306Z,4.20
2019-03-17T06:12:12.495Z,2.90
2019-03-17T06:14:45.609Z,3.17
2019-03-17T06:17:17.833Z,2.80
2019-03-17T06:19:50.343Z,3.77
2019-03-17T06:22:22.815Z,2.90
2019-03-17T06:24:54.841Z,3.27
2019-03-17T06:27:26.889Z,3.13
2019-03-17T06:30:00.386Z,3.30
2019-03-17T06:32:32.508Z,3.33
2019-03-17T06:35:05.543Z,2.57
2019-03-17T06:37:37.732Z,5.43
2019-03-17T06:40:10.695Z,3.30
2019-03-17T06:42:43.239Z,3.03
2019-03-17T06:45:15.442Z,3.90
2019-03-17T06:47:47.405Z,4.07
2019-03-17T06:50:19.985Z,4.13
2019-03-17T06:52:53.499Z,3.67
2019-03-17T06:55:27.535Z,2.47
2019-03-17T06:58:00.119Z,3.60
2019-03-17T07:00:32.592Z,2.60
2019-03-17T07:03:04.940Z,4.17
2019-03-17T07:05:37.656Z,2.20
2019-03-17T07:08:10.067Z,2.20
2019-03-17T07:10:42.689Z,2.73
2019-03-17T07:13:15.549Z,2.97
2019-03-17T07:15:48.883Z,1.93
2019-03-17T07:18:22.369Z,2.43
2019-03-17T07:20:54.975Z,2.93
2019-03-17T07:23:28.249Z,2.47
2019-03-17T07:26:04.780Z,4.03
2019-03-17T07:28:36.811Z,2.40
2019-03-17T07:31:09.889Z,1.93
2019-03-17T07:33:43.867Z,2.40
2019-03-17T07:36:17.600Z,2.83
2019-03-17T07:38:52.653Z,3.77
2019-03-17T07:41:24.646Z,2.33
2019-03-17T07:43:57.850Z,2.30
2019-03-17T07:46:31.696Z,2.43
2019-03-17T07:49:05.405Z,2.83
2019-03-17T07:51:38.996Z,3.03
2019-03-17T07:54:12.901Z,3.17
2019-03-17T07:56:45.587Z,2.00
2019-03-17T07:59:17.668Z,2.07
2019-03-17T08:01:52.808Z,2.53
2019-03-17T08:04:25.155Z,2.63
2019-03-17T08:06:57.740Z,2.70
2019-03-17T08:09:29.633Z,1.90
2019-03-17T08:12:01.859Z,3.40
2019-03-17T08:14:34.074Z,2.43
2019-03-17T08:17:06.930Z,2.60
2019-03-17T08:19:39.183Z,2.43
2019-03-17T08:22:14.992Z,2.33
2019-03-17T08:24:49.400Z,2.77
2019-03-17T08:27:22.452Z,2.87
2019-03-17T08:29:55.024Z,2.27
2019-03-17T08:32:28.988Z,2.17
2019-03-17T08:35:01.438Z,2.27
2019-03-17T08:37:33.407Z,2.27
2019-03-17T08:40:07.599Z,3.27
2019-03-17T08:42:41.801Z,1.93
2019-03-17T08:45:14.016Z,2.93
2019-03-17T08:47:57.905Z,2.70
2019-03-17T08:50:22.931Z,2.80
2019-03-17T08:52:55.986Z,3.23
2019-03-17T08:55:28.124Z,3.00
2019-03-17T08:58:01.320Z,3.50
2019-03-17T09:00:33.843Z,2.57
2019-03-17T09:03:07.467Z,2.63
2019-03-17T09:05:40.693Z,2.90
2019-03-17T09:08:14.513Z,3.27
2019-03-17T09:10:47.251Z,2.33
2019-03-17T09:13:21.908Z,2.20
2019-03-17T09:15:54.291Z,3.97
2019-03-17T09:18:27.093Z,2.97
2019-03-17T09:21:00.758Z,1.83
2019-03-17T09:23:35.652Z,2.00
2019-03-17T09:26:08.821Z,2.13
2019-03-17T09:28:45.106Z,6.13
2019-03-17T09:31:19.863Z,3.30
2019-03-17T09:33:51.931Z,2.77
2019-03-17T09:36:24.822Z,2.03
2019-03-17T09:38:57.266Z,2.30
2019-03-17T09:41:29.283Z,2.03
2019-03-17T09:44:02.544Z,3.07
2019-03-17T09:46:35.325Z,2.60
2019-03-17T09:49:08.856Z,2.37
2019-03-17T09:51:40.731Z,2.10
2019-03-17T09:54:13.199Z,2.67
2019-03-17T09:56:45.233Z,2.73
2019-03-17T09:59:18.932Z,2.70
2019-03-17T10:01:50.939Z,1.83
2019-03-17T10:04:22.884Z,3.03
2019-03-17T10:06:55.387Z,2.10
2019-03-17T10:09:28.372Z,1.87
2019-03-17T10:12:00.490Z,1.87
2019-03-17T10:14:34.036Z,3.60
2019-03-17T10:17:06.581Z,3.00
2019-03-17T10:19:38.904Z,3.13
2019-03-17T10:22:11.908Z,1.87
2019-03-17T10:24:43.955Z,2.07
2019-03-17T10:27:16.424Z,1.47
2019-03-17T10:29:48.314Z,2.10
2019-03-17T10:32:20.635Z,1.67
2019-03-17T10:34:53.148Z,2.10
2019-03-17T10:37:24.943Z,1.23
2019-03-17T10:39:57.504Z,2.83
2019-03-17T10:42:29.806Z,1.83
2019-03-17T10:45:02.622Z,1.80
2019-03-17T10:47:35.560Z,1.67
2019-03-17T10:50:08.931Z,2.40
2019-03-17T10:52:40.818Z,1.80
2019-03-17T10:55:14.295Z,3.23
2019-03-17T10:57:47.095Z,2.50
2019-03-17T11:00:19.407Z,4.13
2019-03-17T11:02:51.224Z,3.00
2019-03-17T11:05:23.500Z,2.90
2019-03-17T11:07:55.763Z,2.97
2019-03-17T11:10:28.563Z,4.57
2019-03-17T11:13:00.436Z,2.87
2019-03-17T11:15:33.206Z,1.83
2019-03-17T11:18:05.484Z,1.97
2019-03-17T11:20:37.363Z,1.83
2019-03-17T11:23:09.726Z,2.10
2019-03-17T11:25:41.531Z,2.17
2019-03-17T11:28:14.248Z,2.43
2019-03-17T11:30:55.633Z,2.17
2019-03-17T11:33:27.540Z,4.90
2019-03-17T11:35:59.915Z,3.27
2019-03-17T11:38:31.697Z,3.17
2019-03-17T11:41:04.450Z,2.30
2019-03-17T11:43:38.236Z,2.87
2019-03-17T11:46:10.060Z,4.63
2019-03-17T11:48:43.207Z,3.47
2019-03-17T11:51:14.971Z,3.23
2019-03-17T11:53:46.799Z,2.97
2019-03-17T11:56:19.506Z,5.03
2019-03-17T11:58:51.381Z,3.20
2019-03-17T12:01:23.766Z,2.90
2019-03-17T12:03:55.639Z,6.87
2019-03-17T12:06:28.042Z,7.00
2019-03-17T12:09:00.690Z,6.83
2019-03-17T12:11:33.639Z,5.73
2019-03-17T12:14:09.698Z,5.57
2019-03-17T12:16:40.760Z,6.37
2019-03-17T12:19:13.249Z,5.70
2019-03-17T12:21:45.060Z,5.17
2019-03-17T12:24:17.328Z,6.80
2019-03-17T12:26:49.679Z,6.30
2019-03-17T12:29:21.601Z,7.77
2019-03-17T12:31:53.403Z,7.70
2019-03-17T12:34:28.590Z,5.03
2019-03-17T12:36:59.207Z,5.80
2019-03-17T12:39:31.137Z,6.10
2019-03-17T12:42:03.419Z,5.90
2019-03-17T12:44:35.806Z,7.13
2019-03-17T12:47:07.714Z,5.03
2019-03-17T12:49:40.155Z,5.60
2019-03-17T12:52:13.090Z,6.77
2019-03-17T12:54:45.314Z,7.30
2019-03-17T12:57:18.148Z,7.43
2019-03-17T12:59:50.051Z,8.63
2019-03-17T13:02:21.941Z,9.20
2019-03-17T13:04:53.797Z,7.67
2019-03-17T13:07:27.391Z,6.77
2019-03-17T13:09:59.157Z,11.43
2019-03-17T13:12:32.045Z,7.50
2019-03-17T13:15:04.348Z,5.00
2019-03-17T13:17:36.701Z,6.73
2019-03-17T13:20:09.577Z,9.63
2019-03-17T13:22:42.425Z,3.00
2019-03-17T13:25:14.318Z,10.00
2019-03-17T13:27:46.145Z,7.37
2019-03-17T13:30:20.009Z,6.83
2019-03-17T13:32:52.916Z,6.70
2019-03-17T13:35:24.825Z,8.37
2019-03-17T13:37:57.188Z,5.30
2019-03-17T13:40:30.217Z,5.07
2019-03-17T13:43:02.822Z,7.93
2019-03-17T13:45:40.972Z,6.10
2019-03-17T13:48:19.458Z,6.50
2019-03-17T13:50:51.284Z,5.03
2019-03-17T13:53:23.521Z,6.00
2019-03-17T13:55:56.003Z,9.17
2019-03-17T13:58:28.924Z,10.33
2019-03-17T14:01:00.788Z,6.57
2019-03-17T14:03:33.333Z,4.77
2019-03-17T14:06:07.346Z,9.03
2019-03-17T14:08:41.075Z,6.67
2019-03-17T14:11:13.702Z,7.20
2019-03-17T14:13:46.059Z,4.80
2019-03-17T14:16:17.842Z,6.93
2019-03-17T14:18:49.699Z,6.13
2019-03-17T14:21:24.327Z,5.53
2019-03-17T14:23:55.375Z,8.07
2019-03-17T14:26:27.260Z,3.90
2019-03-17T14:28:59.188Z,5.63
2019-03-17T14:31:31.708Z,4.73
2019-03-17T14:34:03.718Z,2.07
2019-03-17T14:36:35.567Z,3.43
2019-03-17T14:39:08.512Z,2.23
2019-03-17T14:41:40.759Z,2.00
2019-03-17T14:44:13.599Z,1.53
2019-03-17T14:46:45.816Z,0.90
2019-03-17T14:49:18.655Z,0.53
2019-03-17T14:51:51.083Z,0.50
2019-03-17T14:54:24.041Z,0.40
2019-03-17T14:56:56.329Z,0.50
2019-03-17T14:59:29.215Z,0.40
2019-03-17T15:02:01.589Z,0.50
2019-03-17T15:04:34.014Z,4.73
2019-03-17T15:07:06.366Z,1.10
2019-03-17T15:09:38.696Z,0.50
2019-03-17T15:12:11.822Z,0.60
2019-03-17T15:14:44.490Z,0.67
2019-03-17T15:17:16.399Z,0.63
2019-03-17T15:19:48.735Z,0.50
2019-03-17T15:22:20.985Z,1.03
2019-03-17T15:24:53.143Z,0.60
2019-03-17T15:27:25.029Z,0.53
2019-03-17T15:29:57.015Z,0.60
2019-03-17T15:32:29.495Z,1.30
2019-03-17T15:35:17.892Z,0.70
2019-03-17T15:37:50.227Z,0.67
2019-03-17T15:40:22.432Z,1.70
2019-03-17T15:42:54.788Z,0.60
2019-03-17T15:45:29.832Z,0.60
2019-03-17T15:48:07.240Z,1.03
2019-03-17T15:50:51.318Z,1.57
2019-03-17T15:53:24.018Z,1.13
2019-03-17T15:55:59.616Z,0.73
2019-03-17T15:58:49.076Z,0.90
2019-03-17T16:01:35.014Z,1.13
2019-03-17T16:04:13.770Z,2.53
2019-03-17T16:07:01.123Z,0.80
2019-03-17T16:09:33.377Z,2.17
2019-03-17T16:12:21.526Z,2.03
2019-03-17T16:15:00.373Z,0.90
2019-03-17T16:17:37.949Z,1.40
2019-03-17T16:20:12.083Z,1.03
2019-03-17T16:22:43.932Z,1.63
2019-03-17T16:25:16.607Z,1.07
2019-03-17T16:27:48.514Z,1.70
2019-03-17T16:30:21.612Z,1.43
2019-03-17T16:32:54.324Z,2.03
2019-03-17T16:35:27.060Z,1.10
2019-03-17T16:38:01.382Z,1.47
2019-03-17T16:40:33.822Z,2.37
2019-03-17T16:43:08.545Z,1.90
2019-03-17T16:45:40.695Z,1.83
2019-03-17T16:48:13.644Z,2.90
2019-03-17T16:50:47.287Z,2.47
2019-03-17T16:53:20.347Z,2.83
2019-03-17T16:55:53.037Z,1.97
2019-03-17T16:58:25.049Z,1.37
2019-03-17T17:00:57.996Z,1.53
2019-03-17T17:03:30.975Z,2.13
2019-03-17T17:06:05.745Z,1.30
2019-03-17T17:08:38.910Z,1.90
2019-03-17T17:11:10.895Z,1.97
2019-03-17T17:13:42.975Z,1.10
2019-03-17T17:16:16.820Z,1.43
2019-03-17T17:18:50.604Z,1.10
2019-03-17T17:21:23.143Z,1.27
2019-03-17T17:23:55.648Z,2.03
2019-03-17T17:26:37.318Z,2.03
2019-03-17T17:29:03.005Z,1.97
2019-03-17T17:31:35.278Z,1.97
2019-03-17T17:34:07.846Z,2.60
2019-03-17T17:36:40.843Z,2.63
2019-03-17T17:39:14.039Z,3.53
2019-03-17T17:41:47.441Z,1.47
2019-03-17T17:44:20.436Z,1.53
2019-03-17T17:46:52.575Z,1.33
2019-03-17T17:49:26.391Z,1.23
2019-03-17T17:51:59.595Z,2.37
2019-03-17T17:54:33.009Z,1.23
2019-03-17T17:57:06.173Z,1.47
2019-03-17T17:59:40.479Z,1.83
2019-03-17T18:02:13.660Z,1.70
2019-03-17T18:04:46.420Z,1.77
2019-03-17T18:07:18.408Z,1.60
2019-03-17T18:09:51.724Z,1.87
2019-03-17T18:12:24.215Z,1.97
2019-03-17T18:14:57.350Z,2.53
2019-03-17T18:17:30.551Z,1.47
2019-03-17T18:20:03.649Z,2.17
2019-03-17T18:22:36.101Z,1.40
2019-03-17T18:25:09.439Z,2.00
2019-03-17T18:27:41.380Z,1.40
2019-03-17T18:30:17.415Z,1.97
2019-03-17T18:32:50.781Z,1.90
2019-03-17T18:35:23.289Z,1.90
2019-03-17T18:37:55.466Z,2.20
2019-03-17T18:40:29.415Z,2.63
2019-03-17T18:43:01.946Z,3.17
2019-03-17T18:45:35.608Z,1.93
2019-03-17T18:48:08.697Z,4.10
2019-03-17T18:50:41.237Z,1.50
2019-03-17T18:53:13.479Z,2.07
2019-03-17T18:55:46.542Z,3.53
2019-03-17T18:58:18.705Z,1.70
2019-03-17T19:00:51.714Z,2.17
2019-03-17T19:03:25.110Z,2.60
2019-03-17T19:05:59.156Z,1.90
2019-03-17T19:08:32.619Z,2.60
2019-03-17T19:11:04.925Z,1.63
2019-03-17T19:13:37.406Z,2.37
2019-03-17T19:16:10.245Z,2.60
2019-03-17T19:18:45.342Z,2.30
2019-03-17T19:21:17.985Z,3.10
2019-03-17T19:23:50.120Z,3.03
2019-03-17T19:26:22.345Z,2.30
2019-03-17T19:28:54.489Z,2.73
2019-03-17T19:31:26.535Z,2.80
2019-03-17T19:33:59.591Z,2.43
2019-03-17T19:36:33.377Z,4.17
2019-03-17T19:39:07.840Z,3.37
2019-03-17T19:41:40.880Z,3.20
2019-03-17T19:44:13.170Z,2.73
2019-03-17T19:46:45.913Z,3.90
2019-03-17T19:49:19.023Z,3.87
2019-03-17T19:51:52.502Z,4.33
2019-03-17T19:54:25.088Z,2.77
2019-03-17T19:56:57.635Z,3.20
2019-03-17T19:59:30.128Z,3.97
2019-03-17T20:02:02.750Z,2.43
2019-03-17T20:04:35.886Z,3.00
2019-03-17T20:07:08.901Z,2.80
2019-03-17T20:09:41.817Z,3.80
2019-03-17T20:12:13.934Z,2.30
2019-03-17T20:14:47.092Z,3.77
2019-03-17T20:17:20.436Z,3.37
2019-03-17T20:19:55.142Z,2.20
2019-03-17T20:22:29.026Z,2.63
2019-03-17T20:25:01.136Z,3.07
2019-03-17T20:27:33.703Z,3.47
2019-03-17T20:30:07.028Z,2.33
2019-03-17T20:32:40.663Z,2.23
2019-03-17T20:35:14.283Z,2.97
2019-03-17T20:37:46.995Z,2.60
2019-03-17T20:40:19.410Z,2.73
2019-03-17T20:42:51.922Z,2.50
2019-03-17T20:45:23.805Z,2.93
2019-03-17T20:47:56.612Z,1.80
2019-03-17T20:50:29.579Z,2.53
2019-03-17T20:53:01.593Z,4.10
2019-03-17T20:55:33.654Z,2.00
2019-03-17T20:58:05.982Z,2.60
2019-03-17T21:00:38.496Z,1.40
2019-03-17T21:03:11.335Z,2.30
2019-03-17T21:05:43.465Z,2.17
2019-03-17T21:08:18.126Z,3.07
2019-03-17T21:10:52.006Z,2.73
2019-03-17T21:13:24.644Z,2.20
2019-03-17T21:15:58.073Z,2.83
2019-03-17T21:18:32.272Z,4.00
2019-03-17T21:21:05.095Z,2.60
2019-03-17T21:23:39.239Z,2.37
2019-03-17T21:26:11.616Z,2.53
2019-03-17T21:28:44.645Z,4.40
2019-03-17T21:31:17.873Z,3.83
2019-03-17T21:33:53.004Z,3.27
2019-03-17T21:36:25.179Z,2.80
2019-03-17T21:38:58.400Z,3.17
2019-03-17T21:41:33.445Z,2.13
2019-03-17T21:44:07.435Z,3.43
2019-03-17T21:46:40.034Z,2.87
2019-03-17T21:49:12.268Z,3.27
2019-03-17T21:51:44.733Z,2.93
2019-03-17T21:54:18.510Z,3.20
2019-03-17T21:56:50.586Z,3.00
2019-03-17T21:59:24.804Z,2.77
2019-03-17T22:01:57.353Z,3.27
2019-03-17T22:04:30.417Z,4.27
2019-03-17T22:07:04.846Z,2.73
2019-03-17T22:09:38.320Z,3.03
2019-03-17T22:12:11.810Z,3.40
2019-03-17T22:14:43.944Z,2.70
2019-03-17T22:17:18.359Z,4.33
2019-03-17T22:19:50.298Z,2.50
2019-03-17T22:22:23.688Z,3.40
2019-03-17T22:24:56.249Z,3.87
2019-03-17T22:27:28.711Z,4.43
2019-03-17T22:30:00.952Z,4.47
2019-03-17T22:32:33.608Z,4.93
2019-03-17T22:35:05.995Z,2.93
2019-03-17T22:37:37.935Z,2.50
2019-03-17T22:40:11.580Z,3.47
2019-03-17T22:42:43.397Z,2.93
2019-03-17T22:45:15.500Z,2.70
2019-03-17T22:47:47.934Z,2.87
2019-03-17T22:50:20.430Z,2.67
2019-03-17T22:52:52.908Z,3.83
2019-03-17T22:55:24.767Z,3.03
2019-03-17T22:57:59.105Z,3.33
2019-03-17T23:00:39.625Z,2.27
2019-03-17T23:03:13.251Z,2.40
2019-03-17T23:05:46.339Z,2.87
2019-03-17T23:08:18.160Z,2.73
2019-03-17T23:10:50.686Z,3.53
2019-03-17T23:13:23.126Z,3.43
2019-03-17T23:15:55.059Z,2.43
2019-03-17T23:18:26.904Z,3.67
2019-03-17T23:20:58.762Z,2.63
2019-03-17T23:23:30.680Z,3.00
2019-03-17T23:26:06.355Z,3.00
2019-03-17T23:28:39.151Z,3.03
2019-03-17T23:31:11.661Z,2.00
2019-03-17T23:33:44.051Z,3.17
2019-03-17T23:36:17.479Z,4.57
2019-03-17T23:38:49.972Z,2.10
2019-03-17T23:41:22.225Z,2.07
2019-03-17T23:43:54.002Z,4.47
2019-03-17T23:46:26.349Z,1.90
2019-03-17T23:48:59.851Z,2.07
2019-03-17T23:51:31.812Z,2.43
2019-03-17T23:54:04.285Z,2.27
2019-03-17T23:56:37.054Z,2.10
2019-03-17T23:59:08.996Z,2.17
